Impacts TAF Board
For situational awareness. Not to be used for flight planning purposes.
IDs:

KSFO - San Francisco Intl, CA, US

Issued at 1722 UTC 12 Dec 2018
Updated at 1825 UTC 12 Dec 2018
Potential Impact None Slight Moderate High
Time1756Z 12/19Z 12/20Z 12/21Z 12/22Z 12/23Z 13/00Z 13/01Z 13/02Z 13/03Z 13/04Z 13/05Z 13/06Z 13/07Z>>
Type OBS PRVL PRVL PRVL PRVL PRVL PRVL PRVL PRVL PRVL PRVL PRVL PRVL PRVL
VIS 9 >6 >6 >6 >6 >6 >6 >6 >6 >6 >6 >6 >6 >6
CIG 180 200 200 -- -- -- -- -- -- -- -- -- -- --
Cover BKN BKN BKN SCT SCT SCT SCT SCT FEW FEW FEW FEW FEW FEW
FltCat VFR VFR VFR VFR VFR VFR VFR VFR VFR VFR VFR VFR VFR VFR
WX -- -- -- -- -- -- -- -- -- -- -- -- -- --
WDir 30 340 340 340 340 340 340 340 290 290 290 290 290 290
WSpd 13 8 8 12 12 12 12 12 8 8 8 8 8 8
WGst -- -- -- -- -- -- -- -- -- -- -- -- -- --
Raw TAF
KSFO 121722Z 1218/1324 34008KT P6SM FEW016 BKN200
  FM122100 34012KT P6SM FEW030 SCT200
  FM130200 29008KT P6SM FEW200
  FM130900 14005KT P6SM FEW010 FEW200


Raw METAR
KSFO 121756Z 03013KT 9SM FEW020 BKN180 11/07 A3029 RMK AO2 SLP258 T01110072 10133 20094 51019
KSFO 121656Z 04008KT 9SM FEW016 BKN180 10/07 A3028 RMK AO2 SLP253 T01000072
KSFO 121556Z 04013KT 9SM BKN011 OVC017 12/09 A3026 RMK AO2 SLP248 T01220094

METAR Board
Radar Display
Forecast Discussion
For situational awareness. Not to be used for flight planning purposes.